createdAt,value
2023-03-29T00:01:06.716Z,-2.87
2023-03-29T00:04:16.079Z,-2.86
2023-03-29T00:07:23.774Z,-3.05
2023-03-29T00:10:28.889Z,-3.08
2023-03-29T00:13:34.010Z,-3.07
2023-03-29T00:16:39.347Z,-3.20
2023-03-29T00:19:47.334Z,-3.14
2023-03-29T00:22:52.443Z,-3.03
2023-03-29T00:25:57.850Z,-3.11
2023-03-29T00:29:03.007Z,-3.15
2023-03-29T00:32:08.433Z,-3.25
2023-03-29T00:35:15.221Z,-3.32
2023-03-29T00:38:20.702Z,-3.19
2023-03-29T00:41:26.155Z,-3.08
2023-03-29T00:44:54.873Z,-3.08
2023-03-29T00:48:02.809Z,-3.06
2023-03-29T00:51:11.385Z,-3.05
2023-03-29T00:54:19.757Z,-3.08
2023-03-29T00:57:27.721Z,-3.20
2023-03-29T01:00:36.825Z,-3.20
2023-03-29T01:03:46.912Z,-3.35
2023-03-29T01:06:57.817Z,-3.24
2023-03-29T01:10:09.210Z,-3.35
2023-03-29T01:13:17.020Z,-3.14
2023-03-29T01:16:23.310Z,-3.17
2023-03-29T01:19:34.252Z,-3.12
2023-03-29T01:22:51.464Z,-3.17
2023-03-29T01:26:03.007Z,-3.26
2023-03-29T01:29:11.397Z,-3.23
2023-03-29T01:32:19.966Z,-3.25
2023-03-29T01:35:28.692Z,-3.24
2023-03-29T01:38:38.225Z,-3.29
2023-03-29T01:41:47.870Z,-3.60
2023-03-29T01:44:59.628Z,-3.47
2023-03-29T01:48:10.647Z,-3.40
2023-03-29T01:51:19.632Z,-3.43
2023-03-29T01:54:29.194Z,-3.58
2023-03-29T01:57:35.875Z,-3.53
2023-03-29T02:00:43.903Z,-3.62
2023-03-29T02:03:50.900Z,-3.71
2023-03-29T02:06:57.128Z,-3.87
2023-03-29T02:10:03.326Z,-3.76
2023-03-29T02:13:08.445Z,-3.62
2023-03-29T02:16:15.772Z,-3.56
2023-03-29T02:19:21.873Z,-3.60
2023-03-29T02:22:29.773Z,-3.65
2023-03-29T02:25:34.858Z,-3.80
2023-03-29T02:28:40.098Z,-3.88
2023-03-29T02:31:50.489Z,-3.62
2023-03-29T02:34:59.786Z,-3.53
2023-03-29T02:38:07.382Z,-3.68
2023-03-29T02:41:13.290Z,-3.91
2023-03-29T02:44:21.599Z,-3.89
2023-03-29T02:47:32.576Z,-3.95
2023-03-29T02:50:40.373Z,-3.85
2023-03-29T02:53:50.238Z,-3.83
2023-03-29T02:56:59.448Z,-3.85
2023-03-29T03:00:09.862Z,-4.02
2023-03-29T03:03:16.930Z,-3.99
2023-03-29T03:06:25.819Z,-4.02
2023-03-29T03:09:31.227Z,-3.91
2023-03-29T03:12:37.407Z,-3.82
2023-03-29T03:15:43.596Z,-3.91
2023-03-29T03:18:51.288Z,-4.01
2023-03-29T03:21:57.207Z,-4.18
2023-03-29T03:25:02.382Z,-4.46
2023-03-29T03:28:07.688Z,-4.38
2023-03-29T03:31:14.081Z,-4.14
2023-03-29T03:34:46.844Z,-4.36
2023-03-29T03:37:52.064Z,-4.01
2023-03-29T03:40:57.629Z,-4.09
2023-03-29T03:44:03.393Z,-4.09
2023-03-29T03:47:09.634Z,-4.19
2023-03-29T03:50:17.748Z,-4.19
2023-03-29T03:53:23.857Z,-4.35
2023-03-29T03:56:48.270Z,-4.08
2023-03-29T04:00:10.128Z,-4.12
2023-03-29T04:03:18.761Z,-4.22
2023-03-29T04:06:25.537Z,-4.22
2023-03-29T04:09:59.584Z,-4.28
2023-03-29T04:13:17.598Z,-4.17
2023-03-29T04:16:41.573Z,-4.15
2023-03-29T04:20:11.671Z,-4.21
2023-03-29T04:23:19.754Z,-4.16
2023-03-29T04:26:24.969Z,-4.14
2023-03-29T04:29:36.707Z,-3.98
2023-03-29T04:32:54.250Z,-4.08
2023-03-29T04:35:59.812Z,-4.15
2023-03-29T04:39:07.941Z,-4.16
2023-03-29T04:42:14.639Z,-4.35
2023-03-29T04:45:19.871Z,-4.26
2023-03-29T04:48:40.618Z,-4.56
2023-03-29T04:51:46.470Z,-4.21
2023-03-29T04:54:55.427Z,-3.96
2023-03-29T04:58:22.108Z,-3.97
2023-03-29T05:01:29.069Z,-4.07
2023-03-29T05:04:36.678Z,-4.06
2023-03-29T05:07:49.119Z,-3.92
2023-03-29T05:10:59.354Z,-3.85
2023-03-29T05:14:07.460Z,-3.76
2023-03-29T05:17:15.031Z,-3.60
2023-03-29T05:20:21.228Z,-3.54
2023-03-29T05:23:26.954Z,-3.39
2023-03-29T05:26:53.659Z,-3.37
2023-03-29T05:29:58.861Z,-3.35
2023-03-29T05:33:14.665Z,-3.29
2023-03-29T05:36:20.383Z,-3.14
2023-03-29T05:39:29.118Z,-3.09
2023-03-29T05:42:36.073Z,-3.03
2023-03-29T05:45:45.943Z,-2.97
2023-03-29T05:48:51.817Z,-2.91
2023-03-29T05:51:58.458Z,-2.75
2023-03-29T05:55:05.414Z,-2.63
2023-03-29T05:58:14.190Z,-2.53
2023-03-29T06:01:20.093Z,-2.28
2023-03-29T06:04:33.729Z,-2.12
2023-03-29T06:07:54.459Z,-1.95
2023-03-29T06:11:37.965Z,-1.78
2023-03-29T06:14:48.267Z,-1.66
2023-03-29T06:18:13.812Z,-2.07
2023-03-29T06:21:19.026Z,-1.93
2023-03-29T06:24:25.106Z,-1.87
2023-03-29T06:27:37.360Z,-1.86
2023-03-29T06:30:43.843Z,-1.39
2023-03-29T06:33:49.532Z,-1.28
2023-03-29T06:37:16.158Z,-0.99
2023-03-29T06:40:23.062Z,-0.83
2023-03-29T06:43:28.357Z,-1.18
2023-03-29T06:46:45.618Z,-0.98
2023-03-29T06:49:53.502Z,-0.91
2023-03-29T06:53:07.520Z,-0.57
2023-03-29T06:56:14.759Z,-0.34
2023-03-29T06:59:21.580Z,-0.31
2023-03-29T07:02:35.926Z,-0.60
2023-03-29T07:05:51.940Z,-0.14
2023-03-29T07:08:59.867Z,-0.12
2023-03-29T07:12:24.496Z,-0.07
2023-03-29T07:15:34.238Z,0.10
2023-03-29T07:19:01.536Z,0.19
2023-03-29T07:22:27.261Z,0.39
2023-03-29T07:25:39.535Z,0.30
2023-03-29T07:28:45.547Z,0.08
2023-03-29T07:31:50.740Z,-0.01
2023-03-29T07:35:18.596Z,0.37
2023-03-29T07:38:25.357Z,0.65
2023-03-29T07:41:37.204Z,0.71
2023-03-29T07:44:50.659Z,0.65
2023-03-29T07:47:57.246Z,0.36
2023-03-29T07:51:05.182Z,0.62
2023-03-29T07:54:27.446Z,0.88
2023-03-29T07:57:48.132Z,0.67
2023-03-29T08:00:53.745Z,0.92
2023-03-29T08:04:19.442Z,0.56
2023-03-29T08:07:47.456Z,1.12
2023-03-29T08:10:52.571Z,0.97
2023-03-29T08:14:10.337Z,1.02
2023-03-29T08:17:37.801Z,1.04
2023-03-29T08:20:43.996Z,1.20
2023-03-29T08:23:51.254Z,1.10
2023-03-29T08:27:00.156Z,0.92
2023-03-29T08:30:06.991Z,0.91
2023-03-29T08:33:14.451Z,0.92
2023-03-29T08:36:22.006Z,0.99
2023-03-29T08:39:29.959Z,1.04
2023-03-29T08:43:18.328Z,1.45
2023-03-29T08:47:00.200Z,1.53
2023-03-29T08:50:12.379Z,1.77
2023-03-29T08:53:24.375Z,1.70
2023-03-29T08:56:43.433Z,1.84
2023-03-29T09:00:07.239Z,1.82
2023-03-29T09:03:22.330Z,1.65
2023-03-29T09:06:28.671Z,1.29
2023-03-29T09:09:44.019Z,1.25
2023-03-29T09:13:07.748Z,1.97
2023-03-29T09:16:20.002Z,1.75
2023-03-29T09:19:31.710Z,1.63
2023-03-29T09:22:42.475Z,1.98
2023-03-29T09:25:54.448Z,1.17
2023-03-29T09:29:13.772Z,1.75
2023-03-29T09:32:22.566Z,1.50
2023-03-29T09:35:39.296Z,1.44
2023-03-29T09:38:47.913Z,1.85
2023-03-29T09:41:55.194Z,1.87
2023-03-29T09:45:08.644Z,1.12
2023-03-29T09:48:23.010Z,1.71
2023-03-29T09:51:35.284Z,1.39
2023-03-29T09:54:40.543Z,1.89
2023-03-29T09:58:02.867Z,2.13
2023-03-29T10:01:17.520Z,1.56
2023-03-29T10:04:24.139Z,2.06
2023-03-29T10:07:44.856Z,2.38
2023-03-29T10:10:51.801Z,2.06
2023-03-29T10:14:00.475Z,1.37
2023-03-29T10:17:12.600Z,1.58
2023-03-29T10:20:19.903Z,1.35
2023-03-29T10:23:25.077Z,1.50
2023-03-29T10:26:33.185Z,1.51
2023-03-29T10:29:39.697Z,1.34
2023-03-29T10:32:47.195Z,1.33
2023-03-29T10:35:52.779Z,1.28
2023-03-29T10:39:00.632Z,1.61
2023-03-29T10:42:08.500Z,1.18
2023-03-29T10:45:23.370Z,1.76
2023-03-29T10:48:32.977Z,1.31
2023-03-29T10:51:38.387Z,1.00
2023-03-29T10:54:43.481Z,1.13
2023-03-29T10:57:57.135Z,1.40
2023-03-29T11:01:02.510Z,1.29
2023-03-29T11:04:23.906Z,1.61
2023-03-29T11:07:32.414Z,1.17
2023-03-29T11:10:46.900Z,0.89
2023-03-29T11:13:59.866Z,0.89
2023-03-29T11:17:17.700Z,0.89
2023-03-29T11:20:30.438Z,1.17
2023-03-29T11:23:46.045Z,0.80
2023-03-29T11:27:00.534Z,0.98
2023-03-29T11:30:10.409Z,1.15
2023-03-29T11:33:28.043Z,0.33
2023-03-29T11:36:39.823Z,0.78
2023-03-29T11:39:50.974Z,0.92
2023-03-29T11:42:58.317Z,0.30
2023-03-29T11:46:09.974Z,0.46
2023-03-29T11:49:20.140Z,0.49
2023-03-29T11:52:30.895Z,0.75
2023-03-29T11:55:38.334Z,0.51
2023-03-29T11:58:48.527Z,0.30
2023-03-29T12:01:54.219Z,0.18
2023-03-29T12:04:59.489Z,0.05
2023-03-29T12:08:06.604Z,0.52
2023-03-29T12:11:13.041Z,0.62
2023-03-29T12:14:20.987Z,0.56
2023-03-29T12:17:30.233Z,0.65
2023-03-29T12:20:37.975Z,0.47
2023-03-29T12:23:45.332Z,-0.18
2023-03-29T12:26:54.355Z,-0.23
2023-03-29T12:30:19.914Z,-0.40
2023-03-29T12:33:31.728Z,0.03
2023-03-29T12:37:13.423Z,-0.31
2023-03-29T12:40:27.616Z,-0.23
2023-03-29T12:43:39.111Z,-0.23
2023-03-29T12:47:04.393Z,-0.20
2023-03-29T12:50:16.652Z,0.01
2023-03-29T12:53:23.369Z,0.06
2023-03-29T12:56:40.226Z,0.33
2023-03-29T12:59:46.228Z,0.03
2023-03-29T13:03:00.390Z,0.13
2023-03-29T13:06:06.006Z,-0.33
2023-03-29T13:09:21.609Z,-0.06
2023-03-29T13:12:29.256Z,0.02
2023-03-29T13:15:35.828Z,0.33
2023-03-29T13:18:43.530Z,-0.39
2023-03-29T13:21:51.509Z,-0.36
2023-03-29T13:25:02.196Z,-0.11
2023-03-29T13:28:10.455Z,-0.25
2023-03-29T13:31:18.674Z,0.09
2023-03-29T13:34:27.534Z,-0.01
2023-03-29T13:37:35.468Z,0.09
2023-03-29T13:40:44.535Z,-0.30
2023-03-29T13:43:52.878Z,-0.09
2023-03-29T13:47:05.568Z,-0.16
2023-03-29T13:50:18.141Z,0.16
2023-03-29T13:53:26.132Z,0.26
2023-03-29T13:56:32.886Z,0.15
2023-03-29T13:59:41.476Z,0.19
2023-03-29T14:02:49.385Z,0.42
2023-03-29T14:05:56.120Z,0.29
2023-03-29T14:09:00.830Z,0.30
2023-03-29T14:12:06.084Z,-0.24
2023-03-29T14:15:20.334Z,-0.18
2023-03-29T14:18:25.714Z,0.02
2023-03-29T14:21:30.656Z,0.00
2023-03-29T14:24:36.452Z,-0.05
2023-03-29T14:27:42.181Z,0.27
2023-03-29T14:30:49.928Z,-0.04
2023-03-29T14:33:54.772Z,0.04
2023-03-29T14:36:59.937Z,-0.08
2023-03-29T14:40:08.910Z,-0.18
2023-03-29T14:43:15.937Z,-0.16
2023-03-29T14:46:22.126Z,0.14
2023-03-29T14:49:27.033Z,0.01
2023-03-29T14:52:32.146Z,-0.18
2023-03-29T14:55:38.084Z,0.07
2023-03-29T14:58:46.713Z,-0.20
2023-03-29T15:01:53.114Z,-0.25
2023-03-29T15:04:59.167Z,0.03
2023-03-29T15:08:04.287Z,0.01
2023-03-29T15:11:13.026Z,0.03
2023-03-29T15:14:18.050Z,-0.40
2023-03-29T15:17:42.588Z,-0.28
2023-03-29T15:20:54.794Z,-0.50
2023-03-29T15:23:59.988Z,-0.57
2023-03-29T15:27:05.809Z,-0.58
2023-03-29T15:30:12.830Z,-0.43
2023-03-29T15:33:23.030Z,-0.76
2023-03-29T15:36:28.245Z,-0.57
2023-03-29T15:39:35.028Z,-0.54
2023-03-29T15:42:40.349Z,-0.61
2023-03-29T15:45:47.350Z,-0.40
2023-03-29T15:48:54.519Z,-0.73
2023-03-29T15:51:59.751Z,-0.43
2023-03-29T15:55:04.985Z,-0.38
2023-03-29T15:58:11.773Z,-0.49
2023-03-29T16:01:34.829Z,-0.39
2023-03-29T16:04:41.431Z,-0.53
2023-03-29T16:07:46.553Z,-0.66
2023-03-29T16:10:51.646Z,-0.69
2023-03-29T16:13:57.588Z,-0.63
2023-03-29T16:17:03.361Z,-0.68
2023-03-29T16:20:14.987Z,-0.77
2023-03-29T16:23:20.043Z,-0.71
2023-03-29T16:26:26.266Z,-0.74
2023-03-29T16:29:32.013Z,-0.85
2023-03-29T16:32:37.245Z,-1.03
2023-03-29T16:35:43.733Z,-0.93
2023-03-29T16:38:49.065Z,-0.85
2023-03-29T16:41:54.249Z,-0.93
2023-03-29T16:44:59.556Z,-0.87
2023-03-29T16:48:05.148Z,-1.04
2023-03-29T16:51:11.910Z,-0.92
2023-03-29T16:54:17.793Z,-0.86
2023-03-29T16:57:23.288Z,-1.05
2023-03-29T17:00:29.173Z,-0.86
2023-03-29T17:03:34.233Z,-0.89
2023-03-29T17:06:40.966Z,-0.81
2023-03-29T17:09:46.876Z,-0.96
2023-03-29T17:12:52.206Z,-0.86
2023-03-29T17:15:58.681Z,-0.84
2023-03-29T17:19:03.936Z,-1.04
2023-03-29T17:22:10.552Z,-1.09
2023-03-29T17:25:15.614Z,-1.05
2023-03-29T17:28:20.762Z,-0.98
2023-03-29T17:31:26.243Z,-1.15
2023-03-29T17:34:33.048Z,-1.02
2023-03-29T17:37:39.845Z,-1.03
2023-03-29T17:40:44.936Z,-1.18
2023-03-29T17:43:51.048Z,-1.05
2023-03-29T17:46:56.608Z,-0.96
2023-03-29T17:50:01.810Z,-1.13
2023-03-29T17:53:08.129Z,-1.15
2023-03-29T17:56:14.383Z,-1.20
2023-03-29T17:59:19.838Z,-1.07
2023-03-29T18:02:25.820Z,-1.07
2023-03-29T18:05:30.996Z,-1.22
2023-03-29T18:08:37.631Z,-1.13
2023-03-29T18:11:43.621Z,-1.23
2023-03-29T18:14:48.676Z,-1.16
2023-03-29T18:17:53.780Z,-1.14
2023-03-29T18:20:59.109Z,-1.15
2023-03-29T18:24:05.937Z,-1.16
2023-03-29T18:27:12.298Z,-1.21
2023-03-29T18:30:17.781Z,-1.13
2023-03-29T18:33:23.009Z,-1.11
2023-03-29T18:36:29.508Z,-0.85
2023-03-29T18:39:35.944Z,-0.92
2023-03-29T18:42:41.054Z,-1.02
2023-03-29T18:45:47.605Z,-1.00
2023-03-29T18:48:53.635Z,-0.98
2023-03-29T18:51:58.673Z,-0.97
2023-03-29T18:55:05.378Z,-1.09
2023-03-29T18:58:11.202Z,-1.13
2023-03-29T19:01:16.745Z,-1.06
2023-03-29T19:04:23.436Z,-1.16
2023-03-29T19:07:29.522Z,-1.01
2023-03-29T19:10:38.556Z,-0.99
2023-03-29T19:13:46.406Z,-1.05
2023-03-29T19:16:52.017Z,-1.12
2023-03-29T19:19:57.565Z,-1.07
2023-03-29T19:23:03.636Z,-0.99
2023-03-29T19:26:10.787Z,-0.98
2023-03-29T19:29:16.147Z,-0.95
2023-03-29T19:32:21.305Z,-0.87
2023-03-29T19:35:26.575Z,-1.10
2023-03-29T19:38:31.963Z,-1.02
2023-03-29T19:41:40.653Z,-1.06
2023-03-29T19:44:46.851Z,-1.04
2023-03-29T19:47:55.681Z,-0.93
2023-03-29T19:51:03.575Z,-0.76
2023-03-29T19:54:08.723Z,-0.80
2023-03-29T19:57:15.363Z,-0.90
2023-03-29T20:00:24.542Z,-0.86
2023-03-29T20:03:30.036Z,-0.96
2023-03-29T20:06:35.442Z,-0.92
2023-03-29T20:09:44.544Z,-0.86
2023-03-29T20:12:51.799Z,-0.89
2023-03-29T20:15:57.132Z,-0.99
2023-03-29T20:19:02.795Z,-1.11
2023-03-29T20:22:08.060Z,-0.99
2023-03-29T20:25:14.011Z,-0.99
2023-03-29T20:28:20.770Z,-0.88
2023-03-29T20:31:26.241Z,-1.05
2023-03-29T20:34:31.616Z,-1.11
2023-03-29T20:37:36.765Z,-1.21
2023-03-29T20:40:42.945Z,-1.28
2023-03-29T20:43:58.193Z,-1.19
2023-03-29T20:47:08.126Z,-1.26
2023-03-29T20:50:13.345Z,-1.16
2023-03-29T20:53:20.801Z,-1.22
2023-03-29T20:56:26.316Z,-1.29
2023-03-29T20:59:32.880Z,-1.39
2023-03-29T21:02:38.361Z,-1.47
2023-03-29T21:05:44.747Z,-1.46
2023-03-29T21:08:50.498Z,-1.71
2023-03-29T21:11:55.832Z,-1.50
2023-03-29T21:15:02.541Z,-1.66
2023-03-29T21:18:07.890Z,-1.70
2023-03-29T21:21:15.617Z,-1.76
2023-03-29T21:24:21.179Z,-1.75
2023-03-29T21:27:26.409Z,-1.80
2023-03-29T21:30:32.939Z,-1.78
2023-03-29T21:33:38.030Z,-1.75
2023-03-29T21:36:44.191Z,-1.62
2023-03-29T21:39:49.350Z,-1.66
2023-03-29T21:42:54.440Z,-1.73
2023-03-29T21:46:01.018Z,-1.77
2023-03-29T21:49:06.244Z,-1.92
2023-03-29T21:52:12.561Z,-1.72
2023-03-29T21:55:18.488Z,-1.99
2023-03-29T21:58:23.570Z,-1.96
2023-03-29T22:01:30.104Z,-1.93
2023-03-29T22:04:36.937Z,-1.99
2023-03-29T22:07:42.831Z,-1.94
2023-03-29T22:10:55.391Z,-2.10
2023-03-29T22:14:00.584Z,-2.07
2023-03-29T22:17:07.871Z,-2.22
2023-03-29T22:20:15.492Z,-2.20
2023-03-29T22:23:20.577Z,-2.28
2023-03-29T22:26:28.331Z,-2.12
2023-03-29T22:29:33.574Z,-2.20
2023-03-29T22:32:40.135Z,-2.24
2023-03-29T22:35:45.253Z,-2.07
2023-03-29T22:38:51.745Z,-2.37
2023-03-29T22:41:56.893Z,-2.37
2023-03-29T22:45:01.951Z,-2.48
2023-03-29T22:48:08.605Z,-2.55
2023-03-29T22:51:13.830Z,-2.53
2023-03-29T22:54:19.021Z,-2.32
2023-03-29T22:57:24.091Z,-2.29
2023-03-29T23:00:29.263Z,-2.38
2023-03-29T23:03:36.336Z,-2.47
2023-03-29T23:06:41.643Z,-2.48
2023-03-29T23:09:47.056Z,-2.42
2023-03-29T23:12:52.343Z,-2.46
2023-03-29T23:15:59.258Z,-2.58
2023-03-29T23:19:06.818Z,-2.66
2023-03-29T23:22:14.318Z,-2.62
2023-03-29T23:25:19.366Z,-2.85
2023-03-29T23:28:27.439Z,-2.80
2023-03-29T23:31:33.837Z,-2.75
2023-03-29T23:34:40.619Z,-2.92
2023-03-29T23:37:46.176Z,-2.74
2023-03-29T23:40:58.808Z,-2.48
2023-03-29T23:44:04.453Z,-2.41
2023-03-29T23:47:09.968Z,-2.58
2023-03-29T23:50:16.893Z,-2.73
2023-03-29T23:53:22.241Z,-2.57
2023-03-29T23:56:27.584Z,-2.44
2023-03-29T23:59:38.048Z,-2.52
